Tenerife > ESTACION METEOROLÓGICA La Escalona - Vilaflor

DATOS ACTUALES Online

Ultima actulizacion 29 minutos

17.6 ºC

Temperatura

90

Humedad (%)

898.79

Presión (mb)

10.5

Precipitación (mm)

9.8 NO

Viento (Km/h)

DATOS DIARIOS

Temperatura últimas 24 horas (ºC)

Humedad últimas 24 horas (%)

Presión atmosférica últimas 24 horas (mb)

Precipitaciones últimas 23 horas (mm)

Viento últimas 24 horas (Km/h)

Hora Temperatura (°C) ºC Precipitación (mm) mm Presión (mb) mb Humedad (%) % Viento (Km/h) km/h
24 - 23:00 18.4 0 902 78 13.3 S
25 - 00:00 19.5 0 901 57 23.9 NO
25 - 01:00 18.4 0 901 73 8.1 S
25 - 02:00 18.5 0.3 901 56 13.7 NO
25 - 03:00 17.6 0.9 900 81 14.4 NO
25 - 04:00 17.6 1.4 900 87 15.4 NO
25 - 05:00 18.2 1.8 899 85 8.5 NO
25 - 06:00 17.2 2.1 900 87 6.1 O
25 - 07:00 18.1 2.7 900 85 17.7 NO
25 - 08:00 18 3.4 900 86 13.1 NO
25 - 09:00 18.3 3.9 901 86 9.1 NO
25 - 10:00 18.6 5.1 901 86 24.6 N
25 - 11:00 18.6 5.8 902 85 8.6 NO
25 - 12:00 18.2 7 901 87 15.9 N
25 - 13:00 18.6 7.8 901 86 16.4 O
25 - 14:00 19 8.2 901 84 11.8 NO
25 - 15:00 19 8.6 900 84 11.4 N
25 - 16:00 19.4 8.8 899 86 16.8 N
25 - 17:00 18.5 9.4 899 88 3.5 SO
25 - 18:00 18.1 9.7 899 91 9.1 S
25 - 19:00 17.1 9.9 899 93 11.6 NO
25 - 20:00 17.4 10.1 899 92 5.7 S
25 - 21:00 17.4 10.3 899 93 11.9 N
25 - 22:00 17.6 10.4 899 92 5.5 O
25 - 23:00 17.6 10.5 899 90 9.8 NO
Apalmet utiliza cookies propias y de terceros para mejorar la usabilidad y la experiencia web. Política de cookies.